Time;durP1;ratioP1;P1;durP2;ratioP2;P2;SDS_P1;SDS_P2;PMS_P1;PMS_P2;Temp;Humidity;BMP_temperature;BMP_pressure;BME280_temperature;BME280_humidity;BME280_pressure;Samples;Min_cycle;Max_cycle;Signal;HPM_P1;HPM_P2
2021/07/12 00:00:21;;;;;;;5.18;1.60;;;17.00;99.90;;;;;;4939525;29;20482;-82
2021/07/12 00:02:47;;;;;;;3.10;1.45;;;17.00;99.90;;;;;;4939331;29;20028;-82
2021/07/12 00:05:14;;;;;;;3.15;1.50;;;16.90;99.90;;;;;;4939505;29;20050;-82
2021/07/12 00:07:41;;;;;;;3.47;1.60;;;16.90;99.90;;;;;;4910683;29;20032;-82
2021/07/12 00:10:08;;;;;;;2.65;1.25;;;16.90;99.90;;;;;;4920667;29;20395;-82
2021/07/12 00:12:34;;;;;;;3.40;1.63;;;16.90;99.90;;;;;;4921043;29;20214;-82
2021/07/12 00:15:01;;;;;;;2.83;1.40;;;16.90;99.90;;;;;;4921605;29;20056;-82
2021/07/12 00:17:26;;;;;;;3.05;1.60;;;16.80;99.90;;;;;;4919566;29;20032;-82
2021/07/12 00:19:52;;;;;;;4.05;1.60;;;16.80;99.90;;;;;;4917991;29;20028;-82
2021/07/12 00:22:18;;;;;;;3.00;1.60;;;16.80;99.90;;;;;;4932697;29;20078;-81
2021/07/12 00:24:43;;;;;;;4.57;2.05;;;16.70;99.90;;;;;;4926357;29;20032;-82
2021/07/12 00:27:09;;;;;;;3.88;1.40;;;16.70;99.90;;;;;;4918158;29;20087;-82
2021/07/12 00:29:35;;;;;;;4.38;1.50;;;16.60;99.90;;;;;;4917347;29;20040;-83
2021/07/12 00:32:01;;;;;;;4.13;1.60;;;16.70;99.90;;;;;;4929790;29;20059;-83
2021/07/12 00:34:26;;;;;;;2.75;1.75;;;16.60;99.90;;;;;;4937193;29;20568;-83
2021/07/12 00:36:52;;;;;;;3.28;1.50;;;16.60;99.90;;;;;;4938245;29;20394;-83
2021/07/12 00:39:18;;;;;;;3.40;1.45;;;16.60;99.90;;;;;;4938019;29;20023;-83
2021/07/12 00:41:44;;;;;;;5.40;2.00;;;16.50;99.90;;;;;;4934282;29;20063;-83
2021/07/12 00:44:10;;;;;;;3.50;1.67;;;16.60;99.90;;;;;;4927463;29;20039;-82
2021/07/12 00:46:35;;;;;;;3.92;1.70;;;16.50;99.90;;;;;;4938311;29;20030;-82
2021/07/12 00:49:01;;;;;;;4.20;1.75;;;16.50;99.90;;;;;;4937728;29;20087;-82
2021/07/12 00:51:27;;;;;;;4.18;1.88;;;16.50;99.90;;;;;;4926333;29;20044;-83
2021/07/12 00:53:53;;;;;;;4.45;1.73;;;16.40;99.90;;;;;;4902062;29;20399;-83
2021/07/12 00:56:20;;;;;;;3.92;1.80;;;16.40;99.90;;;;;;4917837;29;20039;-84
2021/07/12 00:58:45;;;;;;;2.53;1.40;;;16.40;99.90;;;;;;4935167;29;20035;-83
2021/07/12 01:01:12;;;;;;;2.67;1.60;;;16.30;99.90;;;;;;4938376;29;20035;-83
2021/07/12 01:03:37;;;;;;;4.57;2.00;;;16.30;99.90;;;;;;4920905;29;20024;-83
2021/07/12 01:06:04;;;;;;;4.25;2.00;;;16.20;99.90;;;;;;4939895;29;20522;-82
2021/07/12 01:08:30;;;;;;;2.97;1.60;;;16.20;99.90;;;;;;4921424;29;20043;-82
2021/07/12 01:11:42;;;;;;;4.70;1.80;;;16.20;99.90;;;;;;4937594;29;20139;-82
2021/07/12 01:14:39;;;;;;;3.00;1.60;;;16.20;99.90;;;;;;4895139;29;20051;-82
2021/07/12 01:17:25;;;;;;;2.72;1.38;;;16.20;99.90;;;;;;4914584;29;20044;-82
2021/07/12 01:20:35;;;;;;;3.88;1.50;;;16.20;99.90;;;;;;4917850;29;20036;-83
2021/07/12 01:23:33;;;;;;;2.75;1.48;;;16.20;99.90;;;;;;4935514;29;20042;-84
2021/07/12 01:26:22;;;;;;;4.25;1.63;;;16.20;99.90;;;;;;4919297;29;20031;-82
2021/07/12 01:28:51;;;;;;;5.47;1.60;;;16.20;99.90;;;;;;4917475;29;20028;-83
2021/07/12 01:31:54;;;;;;;2.38;1.10;;;16.20;99.90;;;;;;4918988;29;20040;-83
2021/07/12 01:34:38;;;;;;;3.28;1.75;;;16.20;99.90;;;;;;4921981;29;20478;-82
2021/07/12 01:37:28;;;;;;;3.35;1.33;;;16.10;99.90;;;;;;4917940;29;20406;-82
2021/07/12 01:40:03;;;;;;;3.25;1.40;;;16.10;99.90;;;;;;4917690;29;20082;-83
2021/07/12 01:42:52;;;;;;;3.00;1.58;;;16.10;99.90;;;;;;4918736;29;20320;-83
2021/07/12 01:48:02;;;;;;;5.25;1.55;;;16.00;99.90;;;;;;4939500;28;20047;-79
2021/07/12 01:50:49;;;;;;;3.28;1.30;;;16.00;99.90;;;;;;4957299;29;20023;-80
2021/07/12 01:53:23;;;;;;;3.58;1.60;;;16.00;99.90;;;;;;4958472;28;20038;-80
2021/07/12 01:56:16;;;;;;;3.92;1.50;;;16.00;99.90;;;;;;4953254;28;20107;-80
2021/07/12 01:59:16;;;;;;;3.53;1.45;;;15.90;99.90;;;;;;4940714;29;20023;-80
2021/07/12 02:01:43;;;;;;;4.35;1.60;;;15.90;99.90;;;;;;4938294;28;20034;-79
2021/07/12 02:04:11;;;;;;;2.63;1.20;;;15.90;99.90;;;;;;4952892;28;20054;-80
2021/07/12 02:06:41;;;;;;;3.55;1.55;;;15.90;99.90;;;;;;4958304;29;20110;-79
2021/07/12 02:09:09;;;;;;;2.88;1.23;;;15.80;99.90;;;;;;4959114;28;20034;-79
2021/07/12 02:11:37;;;;;;;2.53;1.30;;;15.80;99.90;;;;;;4957392;28;20110;-80
2021/07/12 02:14:04;;;;;;;3.83;1.52;;;15.80;99.90;;;;;;4958639;28;20027;-80
2021/07/12 02:16:31;;;;;;;2.95;1.20;;;15.80;99.90;;;;;;4958388;28;20027;-80
2021/07/12 02:18:58;;;;;;;3.35;1.40;;;15.80;99.90;;;;;;4957648;28;20027;-80
2021/07/12 02:21:25;;;;;;;2.30;1.00;;;15.80;99.90;;;;;;4956017;28;20366;-80
2021/07/12 02:23:51;;;;;;;4.80;1.27;;;15.70;99.90;;;;;;4957083;28;20050;-80
2021/07/12 02:26:18;;;;;;;2.63;1.23;;;15.80;99.90;;;;;;4957315;28;20023;-80
2021/07/12 02:28:44;;;;;;;3.00;1.33;;;15.70;99.90;;;;;;4938241;29;20024;-80
2021/07/12 02:31:12;;;;;;;3.78;1.30;;;15.70;99.90;;;;;;4943287;28;20023;-80
2021/07/12 02:33:40;;;;;;;3.15;1.40;;;15.70;99.90;;;;;;4960978;28;20100;-80
2021/07/12 02:36:07;;;;;;;3.33;1.60;;;15.70;99.90;;;;;;4957649;28;20027;-80
2021/07/12 02:38:36;;;;;;;5.13;1.45;;;15.70;99.90;;;;;;4957448;28;20474;-80
2021/07/12 02:41:03;;;;;;;2.20;1.33;;;15.70;99.90;;;;;;4952828;28;20038;-80
2021/07/12 02:43:30;;;;;;;4.05;1.50;;;15.70;99.90;;;;;;4957565;29;20054;-80
2021/07/12 02:45:56;;;;;;;4.50;1.73;;;15.70;99.90;;;;;;4955993;28;20118;-80
2021/07/12 02:48:22;;;;;;;3.47;1.50;;;15.60;99.90;;;;;;4975752;28;20053;-80
2021/07/12 02:50:51;;;;;;;2.95;1.40;;;15.60;99.90;;;;;;4977617;28;20023;-80
2021/07/12 02:53:21;;;;;;;2.70;1.25;;;15.60;99.90;;;;;;4978116;28;20063;-80
2021/07/12 02:55:47;;;;;;;6.25;1.98;;;15.50;99.90;;;;;;4947900;28;20026;-80
2021/07/12 02:58:13;;;;;;;3.97;1.73;;;15.50;99.90;;;;;;4957901;29;20110;-80
2021/07/12 03:00:39;;;;;;;3.67;1.65;;;15.50;99.90;;;;;;4956566;28;20132;-80
2021/07/12 03:03:05;;;;;;;2.80;1.30;;;15.60;99.90;;;;;;4977194;28;20034;-80
2021/07/12 03:05:31;;;;;;;3.30;1.58;;;15.50;99.90;;;;;;4961999;28;20090;-80
2021/07/12 03:08:22;;;;;;;3.28;1.60;;;15.50;99.90;;;;;;4970796;28;20027;-80
2021/07/12 03:10:54;;;;;;;4.35;1.85;;;15.50;99.90;;;;;;4974875;28;20027;-81
2021/07/12 03:13:51;;;;;;;2.78;1.48;;;15.50;99.90;;;;;;4953069;28;20026;-80
2021/07/12 03:16:17;;;;;;;6.43;1.77;;;15.50;99.90;;;;;;4975400;28;21200;-81
2021/07/12 03:18:56;;;;;;;4.15;1.50;;;15.50;99.90;;;;;;4976072;28;20085;-80
2021/07/12 03:21:25;;;;;;;4.72;1.40;;;15.40;99.90;;;;;;4972362;28;20019;-80
2021/07/12 03:23:54;;;;;;;2.70;1.38;;;15.50;99.90;;;;;;4978097;28;20496;-80
2021/07/12 03:26:21;;;;;;;4.68;1.60;;;15.50;99.90;;;;;;4977506;28;20072;-80
2021/07/12 03:28:50;;;;;;;3.67;1.58;;;15.40;99.90;;;;;;4979393;28;20148;-80
2021/07/12 03:31:20;;;;;;;2.92;1.40;;;15.40;99.90;;;;;;4962485;28;20023;-80
2021/07/12 03:33:47;;;;;;;5.07;1.52;;;15.40;99.90;;;;;;4980663;28;20070;-80
2021/07/12 03:36:13;;;;;;;2.58;1.30;;;15.40;99.90;;;;;;4980235;28;20027;-80
2021/07/12 03:38:39;;;;;;;3.22;1.58;;;15.30;99.90;;;;;;4963824;28;20055;-80
2021/07/12 03:41:05;;;;;;;4.03;1.85;;;15.40;99.90;;;;;;4960202;29;20031;-80
2021/07/12 03:43:31;;;;;;;3.95;1.52;;;15.30;99.90;;;;;;4959391;29;20434;-80
2021/07/12 03:46:01;;;;;;;3.20;1.40;;;15.30;99.90;;;;;;4971038;28;20102;-80
2021/07/12 03:48:38;;;;;;;3.95;1.98;;;15.20;99.90;;;;;;4958669;29;20313;-80
2021/07/12 03:51:06;;;;;;;2.78;1.35;;;15.20;99.90;;;;;;4943293;29;20114;-80
2021/07/12 03:53:32;;;;;;;3.67;1.65;;;15.20;99.90;;;;;;4960300;28;20027;-80
2021/07/12 03:55:59;;;;;;;6.10;1.88;;;15.20;99.90;;;;;;4979724;28;20023;-80
2021/07/12 03:58:24;;;;;;;2.90;1.40;;;15.30;99.90;;;;;;4961878;28;20023;-80
2021/07/12 04:00:50;;;;;;;5.22;1.63;;;15.30;99.90;;;;;;4978198;28;20054;-79
2021/07/12 04:03:15;;;;;;;3.72;1.70;;;15.30;99.90;;;;;;4974980;28;20031;-80
2021/07/12 04:05:41;;;;;;;5.40;1.90;;;15.20;99.90;;;;;;4979968;28;20211;-80
2021/07/12 04:08:07;;;;;;;3.88;2.00;;;15.20;99.90;;;;;;4971663;28;20042;-80
2021/07/12 04:10:32;;;;;;;3.30;1.55;;;15.20;99.90;;;;;;4971631;28;20033;-80
2021/07/12 04:12:58;;;;;;;2.75;1.48;;;15.30;99.90;;;;;;4960087;28;20038;-80
2021/07/12 04:15:24;;;;;;;3.38;1.42;;;15.30;99.90;;;;;;4945178;28;20040;-80
2021/07/12 04:17:49;;;;;;;3.95;1.63;;;15.30;99.90;;;;;;4979762;28;20019;-80
2021/07/12 04:20:16;;;;;;;4.97;1.95;;;15.30;99.90;;;;;;4978115;28;20045;-80
2021/07/12 04:22:42;;;;;;;3.03;1.42;;;15.30;99.90;;;;;;4963982;28;20100;-79
2021/07/12 04:25:10;;;;;;;4.78;2.40;;;15.40;99.90;;;;;;4963335;28;20469;-80
2021/07/12 04:27:36;;;;;;;4.07;1.95;;;15.50;99.90;;;;;;4959362;28;20500;-80
2021/07/12 04:30:04;;;;;;;3.53;1.92;;;15.40;99.90;;;;;;4984133;28;20109;-80
2021/07/12 04:32:30;;;;;;;3.88;2.00;;;15.50;99.90;;;;;;4993917;28;20027;-79
2021/07/12 04:34:55;;;;;;;3.22;1.85;;;15.40;99.90;;;;;;4980059;28;20029;-80
2021/07/12 04:37:21;;;;;;;3.97;2.22;;;15.50;99.90;;;;;;4978769;28;20026;-80
2021/07/12 04:39:47;;;;;;;3.60;1.58;;;15.50;99.90;;;;;;4977403;28;20031;-80
2021/07/12 04:42:12;;;;;;;4.53;1.98;;;15.60;99.90;;;;;;4963152;28;20022;-80
2021/07/12 04:44:38;;;;;;;4.50;1.90;;;15.70;99.90;;;;;;4978769;28;20089;-81
2021/07/12 04:47:04;;;;;;;3.40;1.70;;;15.80;99.90;;;;;;4975740;28;20406;-81
2021/07/12 04:49:30;;;;;;;3.92;1.73;;;15.90;99.90;;;;;;4967482;28;20074;-81
2021/07/12 04:51:56;;;;;;;3.80;1.75;;;15.90;99.90;;;;;;4979354;28;20054;-81
2021/07/12 04:54:22;;;;;;;3.90;1.67;;;15.90;99.90;;;;;;4964479;28;20037;-81
2021/07/12 04:56:48;;;;;;;3.75;1.75;;;16.00;99.90;;;;;;4966896;28;20022;-81
2021/07/12 04:59:15;;;;;;;4.00;1.83;;;16.00;99.90;;;;;;4963408;28;20409;-80
2021/07/12 05:01:41;;;;;;;4.53;1.85;;;16.00;99.90;;;;;;4973028;28;20509;-81
2021/07/12 05:04:08;;;;;;;4.68;2.00;;;15.80;99.90;;;;;;4960063;28;20039;-81
2021/07/12 05:06:34;;;;;;;4.00;1.98;;;15.80;99.90;;;;;;4977623;28;20039;-81
2021/07/12 05:09:00;;;;;;;4.75;1.80;;;15.80;99.90;;;;;;4959677;28;20034;-81
2021/07/12 05:11:28;;;;;;;8.35;2.28;;;15.80;99.90;;;;;;4975997;28;20453;-81
2021/07/12 05:13:54;;;;;;;3.33;1.80;;;15.90;99.90;;;;;;4980168;28;20026;-81
2021/07/12 05:16:20;;;;;;;3.63;1.73;;;16.00;99.90;;;;;;4962518;28;20057;-81
2021/07/12 05:18:46;;;;;;;3.60;1.80;;;16.20;99.90;;;;;;4964054;28;20025;-81
2021/07/12 05:21:12;;;;;;;4.93;1.90;;;16.20;99.90;;;;;;4971411;28;20015;-81
2021/07/12 05:23:38;;;;;;;3.35;1.60;;;16.30;99.90;;;;;;4966525;28;20519;-81
2021/07/12 05:26:04;;;;;;;3.03;1.42;;;16.40;99.90;;;;;;4986544;28;20130;-81
2021/07/12 05:28:30;;;;;;;3.92;1.90;;;16.50;99.90;;;;;;4978972;28;20059;-81
2021/07/12 05:30:55;;;;;;;4.57;1.83;;;16.50;99.90;;;;;;4963259;28;20031;-81
2021/07/12 05:33:21;;;;;;;3.83;2.20;;;16.60;99.90;;;;;;4956486;28;20031;-81
2021/07/12 05:35:47;;;;;;;3.83;1.85;;;16.60;99.90;;;;;;4960277;28;20050;-81
2021/07/12 05:38:12;;;;;;;6.82;2.20;;;16.70;99.90;;;;;;4977839;28;20114;-81
2021/07/12 05:40:38;;;;;;;5.32;2.10;;;16.80;99.90;;;;;;4976380;28;20054;-81
2021/07/12 05:43:04;;;;;;;4.45;1.77;;;16.70;99.90;;;;;;4979585;28;20047;-80
2021/07/12 05:45:30;;;;;;;4.90;2.20;;;16.80;99.90;;;;;;4974285;28;20037;-81
2021/07/12 05:47:56;;;;;;;4.15;1.58;;;16.90;99.90;;;;;;4974224;28;20090;-80
2021/07/12 05:50:22;;;;;;;3.97;1.80;;;17.00;99.90;;;;;;4972172;28;20089;-80
2021/07/12 05:52:48;;;;;;;2.70;1.42;;;17.20;99.90;;;;;;4969084;28;20035;-80
2021/07/12 05:55:14;;;;;;;5.22;1.60;;;17.20;99.90;;;;;;4971507;28;20035;-80
2021/07/12 05:57:40;;;;;;;3.65;1.52;;;17.40;99.90;;;;;;4973980;28;20545;-80
2021/07/12 06:00:09;;;;;;;3.40;1.42;;;17.50;99.90;;;;;;4958961;28;20077;-80
2021/07/12 06:02:35;;;;;;;4.22;1.67;;;17.50;99.90;;;;;;4972117;28;20023;-80
2021/07/12 06:05:01;;;;;;;3.08;1.50;;;17.50;99.90;;;;;;4973833;28;20085;-83
2021/07/12 06:07:27;;;;;;;4.03;1.58;;;17.60;99.90;;;;;;4976284;28;20100;-79
2021/07/12 06:09:52;;;;;;;3.28;1.70;;;17.60;99.90;;;;;;4968489;28;20059;-80
2021/07/12 06:12:18;;;;;;;3.13;1.63;;;17.70;99.90;;;;;;4964429;28;20069;-80
2021/07/12 06:14:43;;;;;;;4.80;1.42;;;17.90;99.90;;;;;;4965456;28;20027;-81
2021/07/12 06:17:09;;;;;;;3.78;1.60;;;18.00;99.90;;;;;;4974798;28;20550;-80
2021/07/12 06:19:35;;;;;;;5.38;1.42;;;18.10;99.90;;;;;;4956293;28;20491;-80
2021/07/12 06:22:01;;;;;;;3.03;1.30;;;18.10;99.90;;;;;;4956748;28;20519;-80
2021/07/12 06:24:26;;;;;;;2.35;1.17;;;18.20;99.90;;;;;;4974595;28;20023;-80
2021/07/12 06:26:52;;;;;;;2.95;1.40;;;18.20;99.90;;;;;;4974555;28;20026;-81
2021/07/12 06:29:20;;;;;;;4.78;1.10;;;18.30;99.90;;;;;;4972763;28;20136;-81
2021/07/12 06:31:46;;;;;;;2.20;1.10;;;18.50;99.90;;;;;;4966651;28;20065;-80
2021/07/12 06:34:12;;;;;;;2.38;0.98;;;18.60;99.90;;;;;;4989350;28;20019;-80
2021/07/12 06:36:37;;;;;;;2.50;1.20;;;18.80;99.90;;;;;;4974650;28;20039;-80
2021/07/12 06:39:04;;;;;;;2.65;1.27;;;18.90;99.90;;;;;;4956718;28;20473;-80
2021/07/12 06:41:29;;;;;;;2.90;1.17;;;19.00;99.90;;;;;;4974455;28;20066;-80
2021/07/12 06:43:56;;;;;;;4.30;2.30;;;18.90;99.90;;;;;;4957159;28;20027;-80
2021/07/12 06:46:21;;;;;;;2.63;1.00;;;19.00;99.90;;;;;;4964661;28;20031;-80
2021/07/12 06:48:47;;;;;;;2.60;1.30;;;19.10;99.90;;;;;;4953390;29;20038;-80
2021/07/12 06:51:13;;;;;;;2.30;1.10;;;19.10;99.90;;;;;;4959151;28;20022;-82
2021/07/12 06:53:38;;;;;;;2.78;1.00;;;19.10;99.90;;;;;;4966920;28;20041;-82
2021/07/12 06:56:05;;;;;;;1.90;0.80;;;19.20;99.90;;;;;;4960187;28;20027;-81
2021/07/12 06:58:30;;;;;;;2.83;1.10;;;19.30;99.90;;;;;;4955950;28;20043;-81
2021/07/12 07:00:56;;;;;;;2.65;1.00;;;19.40;99.90;;;;;;4975983;28;20581;-80
2021/07/12 07:03:22;;;;;;;2.45;1.17;;;19.50;99.90;;;;;;4979377;28;20113;-81
2021/07/12 07:05:47;;;;;;;2.35;0.93;;;19.60;99.90;;;;;;4978786;28;20504;-81
2021/07/12 07:08:13;;;;;;;2.80;0.80;;;19.70;99.90;;;;;;4962070;28;20047;-80
2021/07/12 07:10:39;;;;;;;2.47;1.17;;;19.70;99.90;;;;;;4967541;28;20030;-81
2021/07/12 07:13:04;;;;;;;3.38;1.20;;;19.80;99.90;;;;;;4978089;28;20035;-81
2021/07/12 07:15:30;;;;;;;2.40;0.90;;;19.90;99.90;;;;;;4972826;28;20568;-81
2021/07/12 07:17:56;;;;;;;2.00;0.88;;;20.00;99.90;;;;;;4959313;29;20026;-80
2021/07/12 07:20:21;;;;;;;3.17;1.10;;;20.00;99.90;;;;;;4959264;29;20027;-80
2021/07/12 07:22:48;;;;;;;2.63;0.80;;;20.10;99.90;;;;;;4975318;28;20111;-81
2021/07/12 07:25:13;;;;;;;3.03;0.82;;;20.10;99.90;;;;;;4972510;28;20039;-80
2021/07/12 07:27:40;;;;;;;1.90;0.70;;;20.20;99.90;;;;;;4959468;29;20039;-81
2021/07/12 07:30:07;;;;;;;2.13;0.95;;;20.30;99.90;;;;;;4957938;29;20098;-80
2021/07/12 07:32:33;;;;;;;1.98;0.85;;;20.30;99.90;;;;;;4958017;29;20409;-81
2021/07/12 07:34:58;;;;;;;2.20;0.90;;;20.30;99.90;;;;;;4957799;28;20031;-81
2021/07/12 07:37:24;;;;;;;3.25;0.88;;;20.40;99.90;;;;;;4978560;28;20026;-80
2021/07/12 07:39:49;;;;;;;1.60;0.60;;;20.50;99.90;;;;;;4953372;28;20109;-80
2021/07/12 07:42:15;;;;;;;2.22;0.90;;;20.40;99.90;;;;;;4974058;28;20118;-81
2021/07/12 07:44:41;;;;;;;2.33;0.98;;;20.60;99.90;;;;;;4959357;29;20058;-81
2021/07/12 07:47:07;;;;;;;2.13;0.77;;;20.80;99.90;;;;;;4959003;29;20031;-81
2021/07/12 07:49:33;;;;;;;1.95;0.93;;;21.00;99.90;;;;;;4957195;29;20031;-81
2021/07/12 07:51:58;;;;;;;2.28;0.80;;;21.10;99.90;;;;;;4960240;28;20030;-84
2021/07/12 07:54:24;;;;;;;2.13;1.02;;;21.30;99.90;;;;;;4974152;28;20035;-84
2021/07/12 07:56:50;;;;;;;2.60;1.17;;;21.30;99.90;;;;;;4956923;28;20094;-84
2021/07/12 07:59:16;;;;;;;1.92;0.98;;;21.40;99.90;;;;;;4973594;28;20027;-84
2021/07/12 08:01:42;;;;;;;2.00;0.93;;;21.70;99.90;;;;;;4959939;28;20489;-84
2021/07/12 08:04:07;;;;;;;2.13;0.70;;;21.70;99.90;;;;;;4957471;28;20019;-84
2021/07/12 08:06:33;;;;;;;2.15;0.75;;;21.90;99.90;;;;;;4978107;28;20397;-83
2021/07/12 08:08:59;;;;;;;2.05;0.70;;;22.00;99.90;;;;;;4961926;28;20248;-84
2021/07/12 08:11:25;;;;;;;2.65;0.60;;;22.20;99.90;;;;;;4960963;28;20047;-83
2021/07/12 08:13:51;;;;;;;1.80;0.70;;;22.40;99.90;;;;;;4972246;28;20030;-83
2021/07/12 08:16:17;;;;;;;1.55;0.63;;;22.70;99.90;;;;;;4972575;29;20038;-83
2021/07/12 08:18:43;;;;;;;1.55;0.68;;;22.70;99.90;;;;;;4965264;28;20035;-83
2021/07/12 08:21:11;;;;;;;1.90;0.70;;;22.80;99.90;;;;;;4963434;28;20023;-83
2021/07/12 08:23:38;;;;;;;1.17;0.55;;;22.90;99.90;;;;;;4975673;28;20026;-84
2021/07/12 08:26:04;;;;;;;1.73;0.70;;;23.20;99.90;;;;;;4962878;28;20122;-84
2021/07/12 08:28:29;;;;;;;1.13;0.60;;;23.40;99.90;;;;;;4974513;28;20584;-84
2021/07/12 08:30:55;;;;;;;1.92;0.80;;;23.30;99.90;;;;;;4973809;28;20097;-84
2021/07/12 08:33:22;;;;;;;2.55;0.60;;;23.40;99.90;;;;;;4972790;28;20191;-85
2021/07/12 08:35:47;;;;;;;1.00;0.40;;;23.70;99.90;;;;;;4977363;28;20027;-82
2021/07/12 08:38:13;;;;;;;1.63;0.65;;;23.80;99.90;;;;;;4975582;28;20392;-84
2021/07/12 08:40:39;;;;;;;1.52;0.75;;;23.80;99.90;;;;;;4955872;28;20023;-84
2021/07/12 08:43:05;;;;;;;1.92;0.60;;;24.00;99.90;;;;;;4952570;28;20179;-84
2021/07/12 08:45:31;;;;;;;1.65;0.57;;;24.10;99.90;;;;;;4953774;29;20102;-84
2021/07/12 08:47:57;;;;;;;1.08;0.50;;;24.10;99.90;;;;;;4938061;29;20793;-82
2021/07/12 08:50:25;;;;;;;3.00;0.77;;;24.20;99.90;;;;;;4955297;29;20027;-82
2021/07/12 08:52:53;;;;;;;1.90;0.50;;;24.40;99.90;;;;;;4966536;28;20126;-82
2021/07/12 08:55:19;;;;;;;2.17;0.70;;;24.50;99.90;;;;;;4976399;28;20023;-82
2021/07/12 08:57:58;;;;;;;1.30;0.50;;;24.70;99.90;;;;;;4956134;28;20101;-84
2021/07/12 09:01:06;;;;;;;1.20;0.50;;;24.90;99.90;;;;;;4955521;28;20018;-84
2021/07/12 09:03:39;;;;;;;1.73;0.52;;;25.10;99.90;;;;;;4960594;28;20402;-83
2021/07/12 09:06:25;;;;;;;1.80;0.70;;;25.10;99.90;;;;;;4972378;28;20037;-84
2021/07/12 09:08:53;;;;;;;1.58;0.65;;;25.10;99.90;;;;;;4963834;28;20037;-84
2021/07/12 09:11:32;;;;;;;1.35;0.50;;;25.30;99.90;;;;;;4972452;28;20093;-84
2021/07/12 09:13:59;;;;;;;2.88;0.50;;;25.20;99.90;;;;;;4971465;28;20090;-84
2021/07/12 09:16:25;;;;;;;2.05;0.60;;;25.30;99.90;;;;;;4970267;28;20035;-82
2021/07/12 09:19:01;;;;;;;1.30;0.50;;;25.50;99.90;;;;;;4955251;28;20146;-82
2021/07/12 09:21:35;;;;;;;1.48;0.70;;;25.70;99.90;;;;;;4958655;28;20388;-84
2021/07/12 09:26:30;;;;;;;1.27;0.57;;;25.80;99.90;;;;;;4992457;28;20054;-87
2021/07/12 09:28:56;;;;;;;0.95;0.55;;;26.00;99.90;;;;;;4974006;28;20033;-86
2021/07/12 09:31:28;;;;;;;1.83;0.52;;;26.00;99.90;;;;;;4976600;28;20049;-87
2021/07/12 09:33:54;;;;;;;1.35;0.60;;;26.30;99.90;;;;;;4974563;28;20026;-86
2021/07/12 09:36:22;;;;;;;1.30;0.55;;;26.50;99.90;;;;;;4993563;28;20125;-87
2021/07/12 09:38:50;;;;;;;1.83;0.60;;;26.80;99.90;;;;;;4991834;28;20477;-87
2021/07/12 09:41:29;;;;;;;1.92;0.65;;;26.70;99.90;;;;;;4994479;28;20061;-86
2021/07/12 09:44:02;;;;;;;1.33;0.70;;;27.10;99.90;;;;;;4989381;28;20109;-87
2021/07/12 09:46:29;;;;;;;1.10;0.47;;;27.10;99.90;;;;;;4990812;28;20026;-87
2021/07/12 09:49:11;;;;;;;1.70;0.60;;;27.00;98.90;;;;;;4989551;28;20511;-87
2021/07/12 09:51:38;;;;;;;1.10;0.50;;;27.10;99.90;;;;;;4993967;28;20084;-86
2021/07/12 09:54:21;;;;;;;1.27;0.40;;;27.10;98.00;;;;;;4975376;28;20161;-87
2021/07/12 09:56:48;;;;;;;0.93;0.50;;;27.30;98.40;;;;;;4975526;28;20026;-87
2021/07/12 09:59:15;;;;;;;1.15;0.55;;;27.40;98.10;;;;;;4972794;28;20122;-87
2021/07/12 10:01:55;;;;;;;1.55;0.60;;;27.50;97.20;;;;;;4972552;28;20473;-87
2021/07/12 10:04:23;;;;;;;1.25;0.43;;;27.70;97.90;;;;;;4992592;28;20090;-88
2021/07/12 10:06:51;;;;;;;1.35;0.60;;;28.00;97.10;;;;;;4995813;28;20022;-86
2021/07/12 10:09:21;;;;;;;0.88;0.40;;;28.10;96.60;;;;;;4988699;28;20026;-88
2021/07/12 10:11:48;;;;;;;1.02;0.40;;;28.20;95.80;;;;;;4991323;28;20109;-88
2021/07/12 10:14:18;;;;;;;1.05;0.50;;;28.20;96.50;;;;;;4989203;28;20038;-87
2021/07/12 10:16:44;;;;;;;1.05;0.60;;;28.40;94.90;;;;;;4996897;28;20023;-87
2021/07/12 10:19:09;;;;;;;1.27;0.60;;;28.50;94.90;;;;;;5005693;28;20057;-88
2021/07/12 10:21:55;;;;;;;1.15;0.63;;;28.30;94.80;;;;;;4992840;28;20030;-87
2021/07/12 10:24:34;;;;;;;9.82;8.82;;;28.10;94.90;;;;;;4992175;28;20031;-87
2021/07/12 10:27:01;;;;;;;14.00;9.82;;;28.00;94.90;;;;;;4989288;28;20049;-87
2021/07/12 10:29:30;;;;;;;3.88;1.60;;;27.70;94.30;;;;;;4971827;28;20105;-87
2021/07/12 10:31:58;;;;;;;2.00;0.85;;;27.50;95.10;;;;;;4971823;28;20050;-87
2021/07/12 10:34:40;;;;;;;1.98;0.60;;;27.50;94.30;;;;;;4973165;28;20030;-87
2021/07/12 10:37:29;;;;;;;1.05;0.60;;;27.50;95.30;;;;;;4978847;28;20082;-87
2021/07/12 10:40:20;;;;;;;1.63;0.60;;;27.40;95.30;;;;;;5003327;28;20022;-87
2021/07/12 10:42:53;;;;;;;1.95;0.68;;;27.30;94.50;;;;;;4993921;28;20036;-87
2021/07/12 10:45:21;;;;;;;0.90;0.50;;;27.40;95.30;;;;;;5007912;28;20515;-87
2021/07/12 10:47:54;;;;;;;1.77;0.70;;;27.30;94.40;;;;;;4993883;28;20373;-87
2021/07/12 10:50:36;;;;;;;1.45;0.57;;;27.20;95.10;;;;;;4995431;28;20022;-87
2021/07/12 10:53:24;;;;;;;2.45;0.50;;;27.10;94.90;;;;;;4994233;28;20042;-88
2021/07/12 10:56:05;;;;;;;1.20;0.47;;;27.00;94.30;;;;;;4995268;28;20435;-87
2021/07/12 10:58:30;;;;;;;1.98;0.63;;;27.00;95.20;;;;;;4994082;28;20103;-87
2021/07/12 11:00:59;;;;;;;1.00;0.60;;;26.90;95.00;;;;;;4989932;28;20083;-87
2021/07/12 11:03:51;;;;;;;1.35;0.60;;;26.70;95.00;;;;;;4989883;28;20027;-87
2021/07/12 11:06:18;;;;;;;1.17;0.50;;;26.60;95.40;;;;;;5013067;28;20019;-87
2021/07/12 11:08:48;;;;;;;2.13;0.60;;;26.70;95.90;;;;;;4975595;28;20038;-86
2021/07/12 11:11:20;;;;;;;1.30;0.50;;;26.70;94.80;;;;;;4975645;28;20054;-87
2021/07/12 11:13:58;;;;;;;1.40;0.40;;;26.70;93.70;;;;;;4974628;28;20397;-88
2021/07/12 11:16:35;;;;;;;4.32;0.73;;;26.70;92.90;;;;;;4990677;28;20125;-87
2021/07/12 11:19:27;;;;;;;1.73;0.70;;;27.10;94.10;;;;;;5000097;28;20026;-87
2021/07/12 11:21:53;;;;;;;1.85;0.60;;;27.40;93.80;;;;;;4995534;28;20014;-87
2021/07/12 11:24:22;;;;;;;1.05;0.45;;;27.80;92.60;;;;;;4992886;28;20113;-88
2021/07/12 11:26:51;;;;;;;1.92;0.57;;;28.20;92.50;;;;;;4994897;28;20039;-87
2021/07/12 11:29:36;;;;;;;1.88;0.70;;;28.50;92.90;;;;;;4996991;28;20023;-87
2021/07/12 11:32:02;;;;;;;1.20;0.43;;;28.70;91.80;;;;;;4994792;28;20080;-87
2021/07/12 11:34:37;;;;;;;1.25;0.50;;;28.90;91.30;;;;;;4991295;28;20500;-87
2021/07/12 11:37:03;;;;;;;1.15;0.50;;;28.70;91.60;;;;;;4991022;28;20034;-87
2021/07/12 11:39:47;;;;;;;0.95;0.40;;;29.00;91.70;;;;;;4986245;28;20057;-87
2021/07/12 11:42:48;;;;;;;1.15;0.60;;;29.10;90.00;;;;;;4992199;28;20751;-87
2021/07/12 11:45:16;;;;;;;1.40;0.60;;;29.10;90.60;;;;;;4992601;28;20026;-87
2021/07/12 11:47:48;;;;;;;2.70;0.60;;;28.90;90.00;;;;;;4984236;28;20084;-87
2021/07/12 11:50:30;;;;;;;2.55;0.68;;;28.90;89.20;;;;;;4990330;28;20041;-87
2021/07/12 11:52:58;;;;;;;2.28;0.75;;;29.10;90.40;;;;;;4994160;28;20052;-87
2021/07/12 11:55:26;;;;;;;1.70;0.60;;;29.20;88.50;;;;;;4989786;28;20030;-87
2021/07/12 11:57:58;;;;;;;2.95;0.68;;;29.10;90.00;;;;;;4989110;28;20766;-87
2021/07/12 12:00:30;;;;;;;1.10;0.50;;;29.30;85.90;;;;;;4993148;28;20508;-87
2021/07/12 12:03:08;;;;;;;1.67;0.63;;;29.00;85.70;;;;;;4992613;28;20038;-88
2021/07/12 12:05:37;;;;;;;1.95;0.40;;;28.80;85.80;;;;;;4988427;28;20025;-88
2021/07/12 12:08:04;;;;;;;1.30;0.63;;;28.80;85.20;;;;;;4996178;28;20026;-87
2021/07/12 12:10:32;;;;;;;1.33;0.57;;;28.80;88.20;;;;;;4992520;28;20069;-87
2021/07/12 12:13:08;;;;;;;2.85;0.60;;;29.00;88.30;;;;;;4992668;28;20022;-86
2021/07/12 12:15:36;;;;;;;1.15;0.60;;;29.40;88.80;;;;;;4995539;28;20173;-88
2021/07/12 12:18:06;;;;;;;1.40;0.45;;;29.90;87.90;;;;;;4993708;28;20106;-87
2021/07/12 12:20:36;;;;;;;1.02;0.55;;;30.00;86.70;;;;;;4994805;28;20113;-87
2021/07/12 12:23:25;;;;;;;1.75;0.65;;;30.20;86.40;;;;;;4995061;28;20066;-87
2021/07/12 12:25:54;;;;;;;1.42;0.50;;;30.60;86.30;;;;;;4982076;28;20092;-88
2021/07/12 12:28:44;;;;;;;1.90;0.73;;;30.80;85.10;;;;;;4993640;28;20030;-88
2021/07/12 12:31:17;;;;;;;1.30;0.70;;;31.10;84.10;;;;;;4989126;28;20076;-88
2021/07/12 12:33:56;;;;;;;1.10;0.52;;;30.90;81.30;;;;;;4995733;28;20090;-87
2021/07/12 12:36:25;;;;;;;1.80;0.50;;;31.00;83.20;;;;;;4994001;28;20074;-88
2021/07/12 12:38:57;;;;;;;2.63;0.70;;;30.90;83.40;;;;;;4997163;28;20038;-87
2021/07/12 12:41:36;;;;;;;1.58;0.55;;;30.70;83.80;;;;;;5003446;28;20092;-88
2021/07/12 12:44:09;;;;;;;0.88;0.50;;;30.70;82.50;;;;;;4999181;28;20061;-88
2021/07/12 12:46:49;;;;;;;1.15;0.52;;;30.70;82.60;;;;;;5002405;28;20022;-88
2021/07/12 12:49:25;;;;;;;1.30;0.60;;;31.10;82.50;;;;;;4998178;28;20213;-87
2021/07/12 12:51:53;;;;;;;2.72;0.60;;;30.90;79.60;;;;;;5001031;28;20034;-88
2021/07/12 12:54:19;;;;;;;0.98;0.50;;;31.00;81.10;;;;;;4998718;28;20026;-88
2021/07/12 12:56:51;;;;;;;1.25;0.50;;;30.90;80.10;;;;;;4994734;28;20023;-88
2021/07/12 12:59:36;;;;;;;1.58;0.60;;;31.00;79.00;;;;;;4996072;28;20026;-89
2021/07/12 13:02:16;;;;;;;1.30;0.60;;;31.20;80.20;;;;;;4996146;28;20030;-87
2021/07/12 13:04:54;;;;;;;1.45;0.70;;;31.30;80.60;;;;;;4994086;28;20038;-88
2021/07/12 13:07:25;;;;;;;1.73;0.55;;;31.20;80.30;;;;;;4997492;28;20064;-88